createdAt,value
2019-02-15T00:03:22.508Z,86.32
2019-02-15T00:08:26.883Z,86.87
2019-02-15T00:13:31.256Z,84.91
2019-02-15T00:18:37.237Z,85.52
2019-02-15T00:23:41.684Z,85.54
2019-02-15T00:28:46.041Z,85.09
2019-02-15T00:33:51.681Z,85.43
2019-02-15T00:38:56.024Z,85.62
2019-02-15T00:44:00.394Z,85.82
2019-02-15T00:49:05.638Z,84.73
2019-02-15T00:54:11.650Z,84.39
2019-02-15T00:59:23.390Z,83.78
2019-02-15T01:04:29.388Z,85.11
2019-02-15T01:09:35.387Z,84.27
2019-02-15T01:14:39.743Z,83.91
2019-02-15T01:19:44.157Z,84.57
2019-02-15T01:24:48.492Z,84.66
2019-02-15T01:29:57.202Z,84.50
2019-02-15T01:35:09.199Z,85.09
2019-02-15T01:40:15.180Z,83.83
2019-02-15T01:45:26.991Z,86.71
2019-02-15T01:50:31.377Z,85.48
2019-02-15T01:55:35.740Z,85.02
2019-02-15T02:00:40.392Z,84.84
2019-02-15T02:05:44.906Z,84.72
2019-02-15T02:10:49.280Z,84.46
2019-02-15T02:15:53.647Z,86.38
2019-02-15T02:20:58.014Z,85.68
2019-02-15T02:26:02.406Z,85.07
2019-02-15T02:31:06.783Z,85.86
2019-02-15T02:36:11.153Z,86.44
2019-02-15T02:41:15.545Z,86.16
2019-02-15T02:46:20.058Z,85.13
2019-02-15T02:51:24.388Z,86.01
2019-02-15T02:56:28.745Z,87.08
2019-02-15T03:01:33.134Z,85.68
2019-02-15T03:06:37.526Z,85.88
2019-02-15T03:11:41.853Z,86.31
2019-02-15T03:16:46.227Z,86.31
2019-02-15T03:21:50.609Z,85.15
2019-02-15T03:26:54.965Z,86.42
2019-02-15T03:31:59.342Z,86.69
2019-02-15T03:37:21.845Z,86.63
2019-02-15T03:42:26.356Z,87.83
2019-02-15T03:47:30.838Z,87.73
2019-02-15T03:52:35.250Z,88.27
2019-02-15T03:57:39.602Z,87.29
2019-02-15T04:02:44.051Z,86.45
2019-02-15T04:07:48.394Z,85.87
2019-02-15T04:12:52.779Z,87.47
2019-02-15T04:17:57.153Z,88.52
2019-02-15T04:23:01.508Z,88.34
2019-02-15T04:28:05.884Z,88.18
2019-02-15T04:33:10.229Z,88.51
2019-02-15T04:38:14.799Z,88.12
2019-02-15T04:43:20.193Z,87.85
2019-02-15T04:48:24.583Z,87.16
2019-02-15T04:53:28.952Z,88.20
2019-02-15T04:58:33.344Z,86.49
2019-02-15T05:03:37.693Z,87.09
2019-02-15T05:08:42.053Z,87.01
2019-02-15T05:13:46.427Z,88.32
2019-02-15T05:18:50.804Z,87.67
2019-02-15T05:23:55.147Z,86.87
2019-02-15T05:28:59.599Z,87.28
2019-02-15T05:34:03.977Z,86.82
2019-02-15T05:39:08.790Z,88.58
2019-02-15T05:44:13.163Z,89.67
2019-02-15T05:49:17.567Z,89.71
2019-02-15T05:54:21.942Z,88.89
2019-02-15T05:59:26.295Z,88.78
2019-02-15T06:04:30.709Z,88.54
2019-02-15T06:09:35.088Z,88.59
2019-02-15T06:14:39.454Z,85.98
2019-02-15T06:19:43.793Z,84.15
2019-02-15T06:24:48.211Z,84.16
2019-02-15T06:29:52.563Z,86.38
2019-02-15T06:34:56.932Z,84.38
2019-02-15T06:40:01.485Z,85.76
2019-02-15T06:45:06.993Z,87.09
2019-02-15T06:50:11.376Z,85.90
2019-02-15T06:55:15.751Z,86.06
2019-02-15T07:00:38.012Z,85.17
2019-02-15T07:05:42.424Z,85.82
2019-02-15T07:10:46.774Z,86.04
2019-02-15T07:15:51.120Z,84.85
2019-02-15T07:20:55.507Z,83.35
2019-02-15T07:25:59.882Z,82.13
2019-02-15T07:31:04.345Z,83.30
2019-02-15T07:36:08.796Z,82.69
2019-02-15T07:41:13.162Z,81.59
2019-02-15T07:46:17.567Z,81.03
2019-02-15T07:51:21.936Z,79.73
2019-02-15T07:56:26.270Z,78.88
2019-02-15T08:01:30.679Z,78.17
2019-02-15T08:06:35.046Z,79.21
2019-02-15T08:11:39.410Z,79.05
2019-02-15T08:16:43.937Z,78.45
2019-02-15T08:21:48.313Z,78.98
2019-02-15T08:26:52.712Z,78.13
2019-02-15T08:31:57.087Z,78.50
2019-02-15T08:37:01.451Z,78.13
2019-02-15T08:42:05.886Z,77.11
2019-02-15T08:47:10.220Z,76.86
2019-02-15T08:52:14.578Z,76.81
2019-02-15T08:57:18.993Z,76.31
2019-02-15T09:02:23.321Z,75.64
2019-02-15T09:07:27.715Z,75.41
2019-02-15T09:12:32.115Z,75.36
2019-02-15T09:17:36.486Z,74.33
2019-02-15T09:22:40.867Z,73.82
2019-02-15T09:27:52.716Z,73.94
2019-02-15T09:32:57.146Z,73.13
2019-02-15T09:38:01.569Z,73.45
2019-02-15T09:43:05.921Z,71.87
2019-02-15T09:48:10.383Z,71.82
2019-02-15T09:53:15.679Z,71.18
2019-02-15T09:58:20.027Z,70.30
2019-02-15T10:03:24.396Z,69.98
2019-02-15T10:08:29.788Z,69.31
2019-02-15T10:13:34.175Z,69.31
2019-02-15T10:18:38.552Z,67.71
2019-02-15T10:23:42.880Z,67.58
2019-02-15T10:28:47.265Z,67.28
2019-02-15T10:33:51.617Z,66.67
2019-02-15T10:38:56.135Z,64.95
2019-02-15T10:44:00.523Z,64.01
2019-02-15T10:49:04.957Z,64.95
2019-02-15T10:54:09.321Z,64.35
2019-02-15T10:59:13.659Z,64.19
2019-02-15T11:04:18.071Z,63.38
2019-02-15T11:09:22.612Z,62.35
2019-02-15T11:14:27.040Z,61.42
2019-02-15T11:19:31.373Z,61.18
2019-02-15T11:24:35.842Z,60.60
2019-02-15T11:29:40.219Z,61.19
2019-02-15T11:34:44.671Z,59.38
2019-02-15T11:39:49.113Z,60.27
2019-02-15T11:44:53.551Z,58.12
2019-02-15T11:49:58.010Z,57.43
2019-02-15T11:55:02.576Z,56.41
2019-02-15T12:00:18.406Z,56.18
2019-02-15T12:05:23.487Z,56.58
2019-02-15T12:10:27.970Z,54.66
2019-02-15T12:15:32.355Z,53.05
2019-02-15T12:20:36.747Z,53.35
2019-02-15T12:25:41.288Z,53.88
2019-02-15T12:30:47.269Z,52.27
2019-02-15T12:35:51.606Z,53.74
2019-02-15T12:40:55.965Z,52.91
2019-02-15T12:46:01.228Z,51.46
2019-02-15T12:51:06.000Z,49.79
2019-02-15T12:56:10.360Z,49.95
2019-02-15T13:01:14.802Z,50.83
2019-02-15T13:06:28.189Z,51.03
2019-02-15T13:11:25.270Z,49.22
2019-02-15T13:16:29.780Z,47.44
2019-02-15T13:21:34.129Z,47.49
2019-02-15T13:26:38.472Z,46.39
2019-02-15T13:31:42.869Z,47.61
2019-02-15T13:36:47.218Z,46.26
2019-02-15T13:41:51.573Z,46.43
2019-02-15T13:46:57.650Z,44.95
2019-02-15T13:52:02.021Z,44.67
2019-02-15T13:57:06.438Z,45.48
2019-02-15T14:02:10.785Z,44.35
2019-02-15T14:07:19.152Z,43.60
2019-02-15T14:12:23.572Z,43.90
2019-02-15T14:17:29.587Z,42.77
2019-02-15T14:22:35.728Z,42.12
2019-02-15T14:27:40.109Z,41.83
2019-02-15T14:32:44.464Z,42.16
2019-02-15T14:37:48.857Z,41.72
2019-02-15T14:42:53.226Z,40.96
2019-02-15T14:47:57.572Z,41.06
2019-02-15T14:53:02.041Z,41.04
2019-02-15T14:58:06.403Z,42.31
2019-02-15T15:03:10.798Z,41.01
2019-02-15T15:08:15.128Z,42.96
2019-02-15T15:13:19.598Z,42.97
2019-02-15T15:18:24.105Z,43.11
2019-02-15T15:23:28.546Z,42.51
2019-02-15T15:28:33.090Z,41.40
2019-02-15T15:33:37.540Z,39.51
2019-02-15T15:38:41.966Z,40.15
2019-02-15T15:43:46.325Z,39.35
2019-02-15T15:48:50.669Z,39.14
2019-02-15T15:53:55.225Z,40.84
2019-02-15T15:59:01.199Z,41.45
2019-02-15T16:04:05.549Z,41.90
2019-02-15T16:09:09.895Z,42.05
2019-02-15T16:14:14.618Z,43.12
2019-02-15T16:19:19.016Z,43.57
2019-02-15T16:24:23.473Z,43.97
2019-02-15T16:29:27.857Z,42.80
2019-02-15T16:34:32.218Z,43.50
2019-02-15T16:39:36.623Z,44.15
2019-02-15T16:44:40.997Z,44.44
2019-02-15T16:49:45.404Z,45.70
2019-02-15T16:54:49.791Z,47.56
2019-02-15T16:59:54.134Z,47.44
2019-02-15T17:04:58.494Z,47.77
2019-02-15T17:10:02.917Z,49.43
2019-02-15T17:15:12.966Z,50.28
2019-02-15T17:20:18.358Z,52.40
2019-02-15T17:25:22.872Z,53.07
2019-02-15T17:30:27.232Z,54.36
2019-02-15T17:35:31.628Z,54.37
2019-02-15T17:40:36.152Z,54.68
2019-02-15T17:45:40.711Z,55.14
2019-02-15T17:50:45.157Z,55.73
2019-02-15T17:55:49.500Z,56.21
2019-02-15T18:00:53.873Z,56.63
2019-02-15T18:05:58.337Z,58.99
2019-02-15T18:11:02.685Z,57.20
2019-02-15T18:16:07.029Z,58.37
2019-02-15T18:21:11.584Z,58.53
2019-02-15T18:26:16.036Z,59.51
2019-02-15T18:31:21.565Z,64.10
2019-02-15T18:36:25.923Z,66.02
2019-02-15T18:41:30.289Z,68.22
2019-02-15T18:46:34.698Z,68.66
2019-02-15T18:51:39.210Z,68.89
2019-02-15T18:56:43.562Z,68.86
2019-02-15T19:01:48.081Z,68.96
2019-02-15T19:06:52.593Z,67.39
2019-02-15T19:11:56.950Z,69.80
2019-02-15T19:17:01.306Z,69.54
2019-02-15T19:22:05.741Z,71.40
2019-02-15T19:27:10.083Z,70.78
2019-02-15T19:32:14.508Z,69.41
2019-02-15T19:37:19.022Z,71.06
2019-02-15T19:42:23.482Z,73.35
2019-02-15T19:47:27.817Z,72.12
2019-02-15T19:52:32.287Z,73.26
2019-02-15T19:57:36.969Z,72.50
2019-02-15T20:02:41.735Z,72.60
2019-02-15T20:07:46.175Z,73.81
2019-02-15T20:12:50.560Z,72.73
2019-02-15T20:17:54.996Z,72.43
2019-02-15T20:22:59.438Z,73.39
2019-02-15T20:28:13.402Z,71.72
2019-02-15T20:33:09.922Z,73.13
2019-02-15T20:38:14.304Z,72.42
2019-02-15T20:43:18.816Z,72.33
2019-02-15T20:48:23.180Z,74.08
2019-02-15T20:53:27.530Z,72.80
2019-02-15T20:58:31.986Z,72.99
2019-02-15T21:03:36.351Z,73.70
2019-02-15T21:08:40.720Z,73.83
2019-02-15T21:13:45.129Z,74.03
2019-02-15T21:18:49.475Z,74.01
2019-02-15T21:23:53.915Z,75.94
2019-02-15T21:28:59.766Z,74.15
2019-02-15T21:34:04.516Z,74.61
2019-02-15T21:39:09.942Z,75.88
2019-02-15T21:44:14.708Z,76.13
2019-02-15T21:49:19.065Z,75.89
2019-02-15T21:54:23.520Z,75.19
2019-02-15T21:59:27.956Z,75.24
2019-02-15T22:04:32.424Z,74.48
2019-02-15T22:09:36.759Z,74.89
2019-02-15T22:14:41.370Z,74.95
2019-02-15T22:19:45.848Z,76.41
2019-02-15T22:24:50.307Z,75.24
2019-02-15T22:29:54.649Z,74.65
2019-02-15T22:34:59.044Z,75.32
2019-02-15T22:40:26.725Z,75.85
2019-02-15T22:45:31.070Z,76.27
2019-02-15T22:50:36.612Z,76.14
2019-02-15T22:55:40.985Z,75.62
2019-02-15T23:00:52.445Z,76.36
2019-02-15T23:05:58.585Z,76.29
2019-02-15T23:11:02.962Z,77.23
2019-02-15T23:16:07.306Z,76.46
2019-02-15T23:21:11.679Z,76.93
2019-02-15T23:26:16.049Z,77.33
2019-02-15T23:31:20.439Z,77.02
2019-02-15T23:36:24.797Z,77.70
2019-02-15T23:41:29.142Z,76.59
2019-02-15T23:46:33.506Z,79.13
2019-02-15T23:51:37.879Z,76.48
2019-02-15T23:56:42.248Z,78.42
